Abraham Baldwin College, Georgia
Current Conditions -  °F | °C
As of 9:15 PM on Sunday 25 Jan 2015 (Local Time) from KTMA Reporting Station
Scattered Clouds Scattered Clouds  
Wind Chill: 10°   Ceiling: Unl
Heat Index: 10°   Visibility: 10mi
Dew Point:   Wind: 8mph
Humidity: 71%   Direction: 210°SSW
Pressure: 29.86"   Gusts: NA
Location:  31.4406°N, 83.464°W
Report Text: KTMA 260215Z AUTO 21007KT 10SM SCT038 10/05 A2986 RMK AO2
Loading
Personal Weather Stations






























Interactive Weather Map New forecast layout! Learn more

10-Day Weather Forecast

Advertisements
Track Severe Weather on mobile